Time;durP1;ratioP1;P1;durP2;ratioP2;P2;SDS_P1;SDS_P2;PMS_P1;PMS_P2;Temp;Humidity;BMP_temperature;BMP_pressure;BME280_temperature;BME280_humidity;BME280_pressure;Samples;Min_cycle;Max_cycle;Signal;HPM_P1;HPM_P2
2021/06/30 00:01:22;;;;;;;;;;;;;;;27.44;64.23;100368.50;1742743;81;20205;-62
2021/06/30 00:03:48;;;;;;;;;;;;;;;27.44;64.18;100367.09;1749609;80;20959;-61
2021/06/30 00:06:17;;;;;;;;;;;;;;;27.45;64.15;100363.94;1724661;82;20272;-61
2021/06/30 00:08:41;;;;;;;;;;;;;;;27.45;64.12;100361.73;1741375;81;21238;-61
2021/06/30 00:11:07;;;;;;;;;;;;;;;27.43;64.10;100357.09;1748411;80;21638;-61
2021/06/30 00:13:33;;;;;;;;;;;;;;;27.42;64.08;100363.86;1783671;79;20282;-60
2021/06/30 00:15:59;;;;;;;;;;;;;;;27.40;64.07;100366.23;1791250;79;20254;-63
2021/06/30 00:18:25;;;;;;;;;;;;;;;27.38;64.04;100365.79;1781007;79;20808;-61
2021/06/30 00:20:51;;;;;;;;;;;;;;;27.37;64.05;100371.19;1774367;79;21975;-61
2021/06/30 00:23:18;;;;;;;;;;;;;;;27.34;64.05;100373.30;1778497;79;20207;-62
2021/06/30 00:25:44;;;;;;;;;;;;;;;27.31;64.04;100376.27;1791713;79;20147;-64
2021/06/30 00:28:10;;;;;;;;;;;;;;;27.28;64.09;100377.02;1768083;79;20351;-62
2021/06/30 00:30:36;;;;;;;;;;;;;;;27.26;64.11;100373.20;1789143;79;20134;-60
2021/06/30 00:33:03;;;;;;;;;;;;;;;27.24;64.12;100374.77;1788395;79;20827;-60
2021/06/30 00:35:28;;;;;;;;;;;;;;;27.21;64.15;100379.09;1790107;79;20498;-62
2021/06/30 00:37:54;;;;;;;;;;;;;;;27.19;64.13;100381.47;1789179;79;20247;-61
2021/06/30 00:40:20;;;;;;;;;;;;;;;27.16;64.20;100375.80;1786541;79;20628;-62
2021/06/30 00:42:46;;;;;;;;;;;;;;;27.14;64.20;100375.38;1782044;79;20132;-61
2021/06/30 00:45:16;;;;;;;;;;;;;;;27.12;64.25;100376.32;1789032;79;21335;-61
2021/06/30 00:47:42;;;;;;;;;;;;;;;27.11;64.24;100376.94;1710136;82;20177;-61
2021/06/30 00:50:09;;;;;;;;;;;;;;;27.12;64.29;100379.92;1767723;79;20205;-61
2021/06/30 00:52:35;;;;;;;;;;;;;;;27.12;64.35;100377.13;1787388;79;20470;-62
2021/06/30 00:55:01;;;;;;;;;;;;;;;27.15;64.41;100374.20;1768519;79;21037;-62
2021/06/30 00:57:28;;;;;;;;;;;;;;;27.17;64.46;100378.81;1779029;79;21165;-62
2021/06/30 00:59:55;;;;;;;;;;;;;;;27.20;64.52;100373.90;1783645;79;20144;-62
2021/06/30 01:02:22;;;;;;;;;;;;;;;27.23;64.54;100373.14;1789365;79;20134;-62
2021/06/30 01:04:48;;;;;;;;;;;;;;;27.26;64.56;100382.16;1775589;79;20161;-62
2021/06/30 01:07:14;;;;;;;;;;;;;;;27.30;64.56;100380.82;1787317;79;20433;-62
2021/06/30 01:09:40;;;;;;;;;;;;;;;27.34;64.57;100374.70;1765546;79;21067;-62
2021/06/30 01:12:07;;;;;;;;;;;;;;;27.36;64.57;100374.56;1748564;80;20274;-61
2021/06/30 01:14:33;;;;;;;;;;;;;;;27.39;64.56;100377.19;1779746;79;20215;-62
2021/06/30 01:17:01;;;;;;;;;;;;;;;27.41;64.57;100379.84;1782528;79;21886;-61
2021/06/30 01:19:27;;;;;;;;;;;;;;;27.43;64.53;100388.64;1777697;79;20195;-62
2021/06/30 01:21:54;;;;;;;;;;;;;;;27.44;64.49;100386.66;1776265;79;21233;-62
2021/06/30 01:24:20;;;;;;;;;;;;;;;27.45;64.48;100391.06;1784586;79;20195;-61
2021/06/30 01:26:46;;;;;;;;;;;;;;;27.44;64.43;100390.84;1790607;79;20123;-62
2021/06/30 01:29:12;;;;;;;;;;;;;;;27.43;64.39;100397.02;1782584;79;20171;-61
2021/06/30 01:31:38;;;;;;;;;;;;;;;27.40;64.39;100403.36;1743139;80;20185;-62
2021/06/30 01:34:04;;;;;;;;;;;;;;;27.40;64.34;100403.95;1773779;79;21064;-62
2021/06/30 01:36:31;;;;;;;;;;;;;;;27.37;64.34;100406.88;1780003;79;20206;-62
2021/06/30 01:38:57;;;;;;;;;;;;;;;27.35;64.32;100401.47;1752033;79;20183;-62
2021/06/30 01:41:23;;;;;;;;;;;;;;;27.32;64.30;100405.02;1779250;79;20252;-61
2021/06/30 01:43:49;;;;;;;;;;;;;;;27.29;64.31;100410.73;1778685;79;20195;-61
2021/06/30 01:46:15;;;;;;;;;;;;;;;27.28;64.33;100416.72;1780885;79;21125;-61
2021/06/30 01:48:47;;;;;;;;;;;;;;;27.25;64.37;100417.66;1790634;79;20216;-61
2021/06/30 01:51:13;;;;;;;;;;;;;;;27.20;64.37;100409.59;1785010;79;20781;-62
2021/06/30 01:53:39;;;;;;;;;;;;;;;27.19;64.39;100409.98;1785209;79;20463;-62
2021/06/30 01:56:05;;;;;;;;;;;;;;;27.16;64.41;100411.52;1776835;79;20204;-61
2021/06/30 01:58:31;;;;;;;;;;;;;;;27.14;64.44;100415.28;1777461;79;23362;-62
2021/06/30 02:00:57;;;;;;;;;;;;;;;27.11;64.47;100411.03;1737396;81;20181;-62
2021/06/30 02:03:23;;;;;;;;;;;;;;;27.11;64.50;100415.22;1743906;81;20171;-62
2021/06/30 02:05:49;;;;;;;;;;;;;;;27.10;64.51;100409.41;1774653;79;20154;-62
2021/06/30 02:08:15;;;;;;;;;;;;;;;27.11;64.53;100415.22;1772382;79;20434;-62
2021/06/30 02:10:41;;;;;;;;;;;;;;;27.11;64.60;100410.45;1766110;79;21118;-62
2021/06/30 02:13:06;;;;;;;;;;;;;;;27.12;64.69;100413.44;1772504;79;21101;-62
2021/06/30 02:15:34;;;;;;;;;;;;;;;27.16;64.75;100420.47;1771209;79;20129;-62
2021/06/30 02:18:00;;;;;;;;;;;;;;;27.17;64.77;100418.72;1765476;79;20143;-62
2021/06/30 02:20:27;;;;;;;;;;;;;;;27.21;64.81;100415.98;1734850;81;20218;-62
2021/06/30 02:22:53;;;;;;;;;;;;;;;27.23;64.81;100417.24;1731102;81;21177;-62
2021/06/30 02:25:22;;;;;;;;;;;;;;;27.26;64.83;100420.68;1737737;81;20140;-62
2021/06/30 02:27:48;;;;;;;;;;;;;;;27.30;64.82;100415.73;1733700;82;20139;-62
2021/06/30 02:30:21;;;;;;;;;;;;;;;27.33;64.81;100415.02;1738320;81;20483;-62
2021/06/30 02:32:47;;;;;;;;;;;;;;;27.34;64.79;100422.19;1731602;82;20135;-62
2021/06/30 02:35:15;;;;;;;;;;;;;;;27.35;64.80;100418.22;1704558;82;21349;-62
2021/06/30 02:37:41;;;;;;;;;;;;;;;27.35;64.78;100421.02;1773319;80;20452;-62
2021/06/30 02:40:09;;;;;;;;;;;;;;;27.35;64.77;100413.45;1752703;80;20178;-61
2021/06/30 02:42:36;;;;;;;;;;;;;;;27.34;64.73;100415.20;1773031;79;20561;-62
2021/06/30 02:45:04;;;;;;;;;;;;;;;27.33;64.68;100412.22;1750079;80;20136;-62
2021/06/30 02:47:29;;;;;;;;;;;;;;;27.31;64.63;100415.96;1745302;81;20969;-61
2021/06/30 02:49:55;;;;;;;;;;;;;;;27.28;64.62;100419.70;1734500;81;20185;-62
2021/06/30 02:52:21;;;;;;;;;;;;;;;27.26;64.57;100417.89;1691744;83;20745;-62
2021/06/30 02:54:47;;;;;;;;;;;;;;;27.23;64.58;100422.83;1741036;80;20673;-62
2021/06/30 02:57:13;;;;;;;;;;;;;;;27.20;64.55;100426.34;1723548;81;20815;-62
2021/06/30 02:59:39;;;;;;;;;;;;;;;27.17;64.56;100427.09;1764874;80;23304;-61
2021/06/30 03:02:05;;;;;;;;;;;;;;;27.15;64.55;100432.27;1757972;79;20261;-62
2021/06/30 03:04:31;;;;;;;;;;;;;;;27.11;64.56;100430.00;1770272;80;20210;-62
2021/06/30 03:06:57;;;;;;;;;;;;;;;27.08;64.57;100426.52;1765068;80;20199;-61
2021/06/30 03:09:23;;;;;;;;;;;;;;;27.05;64.57;100434.26;1758987;79;20856;-62
2021/06/30 03:11:50;;;;;;;;;;;;;;;27.03;64.62;100434.42;1757699;80;22055;-62
2021/06/30 03:14:16;;;;;;;;;;;;;;;27.01;64.64;100435.37;1758058;80;20596;-62
2021/06/30 03:16:43;;;;;;;;;;;;;;;26.97;64.68;100431.70;1761778;80;20260;-62
2021/06/30 03:19:09;;;;;;;;;;;;;;;26.94;64.68;100427.67;1762753;80;20507;-61
2021/06/30 03:21:35;;;;;;;;;;;;;;;26.92;64.71;100418.84;1761059;80;20513;-63
2021/06/30 03:24:01;;;;;;;;;;;;;;;26.94;64.72;100422.67;1764356;80;21947;-62
2021/06/30 03:26:28;;;;;;;;;;;;;;;26.94;64.76;100424.08;1756878;80;20263;-62
2021/06/30 03:28:54;;;;;;;;;;;;;;;26.95;64.82;100423.69;1761548;80;20510;-62
2021/06/30 03:31:20;;;;;;;;;;;;;;;26.96;64.86;100418.33;1761158;80;20724;-62
2021/06/30 03:33:46;;;;;;;;;;;;;;;27.00;64.91;100426.18;1764533;80;20174;-62
2021/06/30 03:36:12;;;;;;;;;;;;;;;27.02;64.92;100427.22;1755658;80;21114;-62
2021/06/30 03:38:38;;;;;;;;;;;;;;;27.05;64.94;100422.27;1760245;80;20187;-62
2021/06/30 03:41:04;;;;;;;;;;;;;;;27.08;64.93;100421.53;1764637;80;20814;-62
2021/06/30 03:43:29;;;;;;;;;;;;;;;27.10;64.93;100421.39;1762100;80;21397;-62
2021/06/30 03:45:55;;;;;;;;;;;;;;;27.14;64.92;100420.86;1762463;80;20207;-62
2021/06/30 03:48:21;;;;;;;;;;;;;;;27.17;64.90;100418.72;1767479;80;20995;-62
2021/06/30 03:50:47;;;;;;;;;;;;;;;27.18;64.86;100418.94;1728360;81;20309;-62
2021/06/30 03:53:13;;;;;;;;;;;;;;;27.20;64.82;100412.38;1728419;81;21631;-63
2021/06/30 03:55:39;;;;;;;;;;;;;;;27.21;64.77;100412.61;1725087;81;20668;-62
2021/06/30 03:58:05;;;;;;;;;;;;;;;27.21;64.73;100408.41;1739198;81;20385;-62
2021/06/30 04:00:31;;;;;;;;;;;;;;;27.21;64.67;100411.80;1742129;81;21148;-63
2021/06/30 04:02:57;;;;;;;;;;;;;;;27.20;64.61;100413.00;1740156;81;20178;-62
2021/06/30 04:05:23;;;;;;;;;;;;;;;27.18;64.58;100421.73;1729065;81;20253;-63
2021/06/30 04:07:49;;;;;;;;;;;;;;;27.16;64.55;100424.66;1768269;79;20554;-62
2021/06/30 04:10:16;;;;;;;;;;;;;;;27.15;64.53;100431.45;1771053;79;20235;-62
2021/06/30 04:12:41;;;;;;;;;;;;;;;27.11;64.51;100420.22;1730062;81;21227;-62
2021/06/30 04:15:08;;;;;;;;;;;;;;;27.08;64.51;100413.95;1736958;81;20722;-62
2021/06/30 04:17:35;;;;;;;;;;;;;;;27.06;64.50;100413.54;1737582;81;20492;-63
2021/06/30 04:20:03;;;;;;;;;;;;;;;27.04;64.50;100409.48;1741584;81;20768;-62
2021/06/30 04:22:29;;;;;;;;;;;;;;;27.01;64.53;100405.47;1708857;82;20516;-62
2021/06/30 04:24:55;;;;;;;;;;;;;;;26.98;64.54;100397.84;1713859;82;22020;-62
2021/06/30 04:27:21;;;;;;;;;;;;;;;26.96;64.57;100404.37;1714246;82;20171;-62
2021/06/30 04:29:47;;;;;;;;;;;;;;;26.94;64.63;100405.92;1763413;79;20206;-61
2021/06/30 04:32:13;;;;;;;;;;;;;;;26.92;64.67;100406.87;1767794;79;20553;-61
2021/06/30 04:34:38;;;;;;;;;;;;;;;26.91;64.69;100408.04;1763154;79;20315;-61
2021/06/30 04:37:04;;;;;;;;;;;;;;;26.90;64.72;100405.05;1769084;79;20985;-61
2021/06/30 04:39:30;;;;;;;;;;;;;;;26.91;64.79;100405.25;1766667;79;20230;-63
2021/06/30 04:41:56;;;;;;;;;;;;;;;26.92;64.85;100406.28;1771137;79;20202;-62
2021/06/30 04:44:22;;;;;;;;;;;;;;;26.92;64.91;100406.28;1758544;79;20268;-62
2021/06/30 04:46:48;;;;;;;;;;;;;;;26.95;65.00;100408.33;1769239;79;20196;-62
2021/06/30 04:49:14;;;;;;;;;;;;;;;26.96;65.04;100403.55;1768625;79;21279;-62
2021/06/30 04:51:41;;;;;;;;;;;;;;;26.99;65.12;100402.22;1768365;79;20229;-62
2021/06/30 04:54:07;;;;;;;;;;;;;;;27.03;65.13;100413.48;1760870;79;20207;-61
2021/06/30 04:56:39;;;;;;;;;;;;;;;27.06;65.14;100412.73;1770931;79;21160;-62
2021/06/30 04:59:06;;;;;;;;;;;;;;;27.10;65.15;100410.80;1772464;79;20143;-63
2021/06/30 05:01:32;;;;;;;;;;;;;;;27.14;65.14;100414.47;1750305;80;21212;-63
2021/06/30 05:03:58;;;;;;;;;;;;;;;27.18;65.11;100416.15;1742737;80;20130;-62
2021/06/30 05:06:24;;;;;;;;;;;;;;;27.21;65.09;100421.57;1792228;79;20213;-63
2021/06/30 05:08:50;;;;;;;;;;;;;;;27.23;65.06;100420.63;1784018;79;20425;-63
2021/06/30 05:11:16;;;;;;;;;;;;;;;27.24;65.05;100427.22;1782400;79;20167;-62
2021/06/30 05:13:42;;;;;;;;;;;;;;;27.25;64.99;100427.44;1783347;79;23341;-63
2021/06/30 05:16:09;;;;;;;;;;;;;;;27.25;64.94;100423.25;1785179;79;20177;-63
2021/06/30 05:18:35;;;;;;;;;;;;;;;27.25;64.90;100426.04;1772400;79;20392;-62
2021/06/30 05:21:01;;;;;;;;;;;;;;;27.24;64.87;100431.41;1770234;79;20650;-62
2021/06/30 05:23:26;;;;;;;;;;;;;;;27.22;64.83;100430.98;1769827;79;20160;-63
2021/06/30 05:25:52;;;;;;;;;;;;;;;27.20;64.81;100430.53;1768285;79;22075;-62
2021/06/30 05:28:18;;;;;;;;;;;;;;;27.18;64.78;100430.11;1770903;79;20246;-63
2021/06/30 05:30:44;;;;;;;;;;;;;;;27.15;64.80;100430.87;1767949;80;20139;-63
2021/06/30 05:33:10;;;;;;;;;;;;;;;27.13;64.77;100424.02;1768846;79;20199;-63
2021/06/30 05:35:36;;;;;;;;;;;;;;;27.09;64.79;100416.98;1771818;79;20153;-63
2021/06/30 05:38:02;;;;;;;;;;;;;;;27.07;64.79;100416.56;1772026;79;21864;-63
2021/06/30 05:40:28;;;;;;;;;;;;;;;27.05;64.80;100420.30;1769615;79;20194;-63
2021/06/30 05:42:57;;;;;;;;;;;;;;;27.02;64.83;100416.86;1773472;79;20185;-63
2021/06/30 05:45:23;;;;;;;;;;;;;;;26.99;64.85;100421.77;1768736;79;20203;-62
2021/06/30 05:47:49;;;;;;;;;;;;;;;26.98;64.86;100420.76;1753968;80;20328;-62
2021/06/30 05:50:17;;;;;;;;;;;;;;;26.96;64.90;100418.91;1786587;79;21137;-62
2021/06/30 05:52:43;;;;;;;;;;;;;;;26.93;64.91;100416.87;1788229;79;20216;-62
2021/06/30 05:55:10;;;;;;;;;;;;;;;26.93;64.93;100420.47;1787602;78;20281;-61
2021/06/30 05:57:36;;;;;;;;;;;;;;;26.94;64.97;100419.88;1785889;79;20143;-61
2021/06/30 06:00:05;;;;;;;;;;;;;;;26.95;65.03;100425.08;1784170;79;20215;-61
2021/06/30 06:02:31;;;;;;;;;;;;;;;26.96;65.09;100421.70;1781008;79;21211;-60
2021/06/30 06:04:57;;;;;;;;;;;;;;;26.98;65.14;100424.36;1770253;79;20728;-61
2021/06/30 06:07:23;;;;;;;;;;;;;;;27.01;65.19;100428.38;1772838;79;20212;-62
2021/06/30 06:09:49;;;;;;;;;;;;;;;27.02;65.22;100425.23;1773398;79;20157;-62
2021/06/30 06:12:14;;;;;;;;;;;;;;;27.07;65.21;100433.31;1785868;79;20155;-61
2021/06/30 06:14:40;;;;;;;;;;;;;;;27.09;65.24;100430.94;1783834;79;21045;-63
2021/06/30 06:17:08;;;;;;;;;;;;;;;27.14;65.22;100437.63;1778588;79;20205;-61
2021/06/30 06:19:34;;;;;;;;;;;;;;;27.17;65.20;100434.08;1779700;79;20219;-61
2021/06/30 06:22:00;;;;;;;;;;;;;;;27.20;65.19;100431.15;1783514;79;20668;-61
2021/06/30 06:24:26;;;;;;;;;;;;;;;27.21;65.19;100434.95;1796852;79;20158;-62
2021/06/30 06:26:53;;;;;;;;;;;;;;;27.23;65.15;100428.41;1783621;79;21014;-62
2021/06/30 06:29:19;;;;;;;;;;;;;;;27.24;65.13;100431.41;1774190;79;20418;-62
2021/06/30 06:31:48;;;;;;;;;;;;;;;27.24;65.07;100434.20;1781097;79;20448;-62
2021/06/30 06:34:19;;;;;;;;;;;;;;;27.24;65.02;100432.80;1783586;79;20419;-62
2021/06/30 06:36:41;;;;;;;;;;;;;;;27.24;64.99;100434.20;1731815;81;20211;-62
2021/06/30 06:39:07;;;;;;;;;;;;;;;27.22;64.95;100435.76;1754286;81;22460;-63
2021/06/30 06:41:33;;;;;;;;;;;;;;;27.19;64.91;100430.34;1714045;82;20180;-62
2021/06/30 06:43:59;;;;;;;;;;;;;;;27.19;64.90;100427.55;1752358;81;20256;-61
2021/06/30 06:46:24;;;;;;;;;;;;;;;27.16;64.89;100425.47;1722989;82;20673;-62
2021/06/30 06:48:50;;;;;;;;;;;;;;;27.14;64.89;100427.03;1734242;81;20169;-61
2021/06/30 06:51:16;;;;;;;;;;;;;;;27.12;64.87;100423.80;1713100;82;21801;-61
2021/06/30 06:53:42;;;;;;;;;;;;;;;27.09;64.86;100420.36;1716903;82;20207;-62
2021/06/30 06:56:12;;;;;;;;;;;;;;;27.06;64.88;100416.92;1710979;82;20301;-61
2021/06/30 06:58:38;;;;;;;;;;;;;;;27.04;64.90;100408.09;1792423;79;20139;-62
2021/06/30 07:01:05;;;;;;;;;;;;;;;27.00;64.91;100408.03;1787466;78;20225;-62
2021/06/30 07:03:31;;;;;;;;;;;;;;;26.98;64.90;100401.22;1782616;79;21147;-62
2021/06/30 07:05:57;;;;;;;;;;;;;;;26.96;64.94;100407.16;1773224;79;21041;-61
2021/06/30 07:08:23;;;;;;;;;;;;;;;26.95;64.98;100401.94;1779761;78;20363;-62
2021/06/30 07:10:49;;;;;;;;;;;;;;;26.93;64.98;100399.53;1780431;79;20756;-62
2021/06/30 07:13:15;;;;;;;;;;;;;;;26.94;65.00;100400.34;1773408;79;20251;-62
2021/06/30 07:15:41;;;;;;;;;;;;;;;26.94;65.04;100398.36;1774549;79;21212;-62
2021/06/30 07:18:13;;;;;;;;;;;;;;;26.95;65.09;100398.56;1776444;79;20264;-63
2021/06/30 07:20:39;;;;;;;;;;;;;;;26.97;65.13;100393.42;1741368;81;20203;-62
2021/06/30 07:23:05;;;;;;;;;;;;;;;26.99;65.17;100391.67;1724143;82;20167;-62
2021/06/30 07:25:31;;;;;;;;;;;;;;;27.02;65.19;100400.69;1768967;79;20479;-63
2021/06/30 07:27:57;;;;;;;;;;;;;;;27.05;65.20;100395.75;1769429;79;21198;-62
2021/06/30 07:30:23;;;;;;;;;;;;;;;27.07;65.20;100391.42;1770539;80;20224;-63
2021/06/30 07:32:49;;;;;;;;;;;;;;;27.11;65.17;100400.67;1736843;80;20194;-62
2021/06/30 07:35:15;;;;;;;;;;;;;;;27.15;65.17;100394.56;1736205;81;20699;-63
2021/06/30 07:37:41;;;;;;;;;;;;;;;27.18;65.15;100392.41;1740133;80;20490;-62
2021/06/30 07:40:09;;;;;;;;;;;;;;;27.21;65.12;100390.27;1741690;80;21069;-63
2021/06/30 07:42:35;;;;;;;;;;;;;;;27.23;65.07;100394.09;1738570;80;20174;-63
2021/06/30 07:45:01;;;;;;;;;;;;;;;27.24;65.04;100392.30;1733954;80;20186;-62
2021/06/30 07:47:28;;;;;;;;;;;;;;;27.24;64.99;100392.30;1743715;80;20176;-63
2021/06/30 07:49:54;;;;;;;;;;;;;;;27.24;64.92;100400.68;1740247;80;20405;-61
2021/06/30 07:52:20;;;;;;;;;;;;;;;27.24;64.86;100394.31;1737491;81;22010;-61
2021/06/30 07:54:46;;;;;;;;;;;;;;;27.23;64.87;100400.48;1738036;81;20194;-61
2021/06/30 07:57:11;;;;;;;;;;;;;;;27.22;64.84;100403.05;1738924;81;20276;-61
2021/06/30 07:59:37;;;;;;;;;;;;;;;27.19;64.82;100401.02;1737291;81;20395;-60
2021/06/30 08:02:03;;;;;;;;;;;;;;;27.18;64.83;100395.79;1737425;81;20241;-62
2021/06/30 08:04:29;;;;;;;;;;;;;;;27.15;64.84;100394.56;1740753;81;21154;-61
2021/06/30 08:06:55;;;;;;;;;;;;;;;27.11;64.82;100389.50;1738473;81;20234;-61
2021/06/30 08:09:21;;;;;;;;;;;;;;;27.10;64.83;100391.27;1739019;81;21749;-61
2021/06/30 08:11:47;;;;;;;;;;;;;;;27.08;64.82;100393.60;1738058;81;20230;-61
2021/06/30 08:14:13;;;;;;;;;;;;;;;27.05;64.82;100392.38;1735319;81;20203;-60
2021/06/30 08:16:40;;;;;;;;;;;;;;;27.02;64.85;100393.13;1734002;81;21136;-61
2021/06/30 08:19:08;;;;;;;;;;;;;;;27.01;64.85;100389.30;1735959;81;20489;-61
2021/06/30 08:21:34;;;;;;;;;;;;;;;26.98;64.86;100392.25;1711609;82;20199;-61
2021/06/30 08:24:00;;;;;;;;;;;;;;;26.97;64.89;100392.03;1766478;81;20185;-61
2021/06/30 08:26:26;;;;;;;;;;;;;;;26.94;64.91;100391.97;1762591;79;20471;-61
2021/06/30 08:28:52;;;;;;;;;;;;;;;26.95;64.89;100385.99;1764919;79;20969;-61
2021/06/30 08:31:18;;;;;;;;;;;;;;;26.96;64.94;100394.59;1742012;81;20175;-62
2021/06/30 08:33:44;;;;;;;;;;;;;;;26.96;64.96;100386.22;1740507;81;20183;-62
2021/06/30 08:36:10;;;;;;;;;;;;;;;26.98;64.99;100386.67;1710479;82;20206;-62
2021/06/30 08:38:36;;;;;;;;;;;;;;;26.99;65.02;100384.08;1717506;82;21107;-62
2021/06/30 08:41:02;;;;;;;;;;;;;;;27.03;65.03;100383.55;1704316;83;21844;-62
2021/06/30 08:43:28;;;;;;;;;;;;;;;27.06;65.03;100385.62;1727314;81;20170;-62
2021/06/30 08:45:54;;;;;;;;;;;;;;;27.11;65.04;100376.13;1726172;81;20200;-62
2021/06/30 08:48:20;;;;;;;;;;;;;;;27.15;65.04;100374.20;1728810;82;20738;-62
2021/06/30 08:50:47;;;;;;;;;;;;;;;27.18;65.02;100377.05;1731661;81;20152;-62
2021/06/30 08:53:14;;;;;;;;;;;;;;;27.22;64.97;100375.13;1742169;81;21183;-62
2021/06/30 08:55:44;;;;;;;;;;;;;;;27.25;64.94;100370.77;1705381;82;20484;-62
2021/06/30 08:58:11;;;;;;;;;;;;;;;27.27;64.89;100367.02;1771162;79;20182;-62
2021/06/30 09:00:37;;;;;;;;;;;;;;;27.28;64.84;100370.04;1765593;80;20443;-61
2021/06/30 09:03:03;;;;;;;;;;;;;;;27.30;64.76;100368.25;1770455;79;20322;-61
2021/06/30 09:07:57;;;;;;;;;;;;;;;27.28;64.68;100373.61;1764880;79;20173;-62
2021/06/30 09:10:34;;;;;;;;;;;;;;;27.28;64.59;100368.03;1763310;79;20686;-62
2021/06/30 09:13:00;;;;;;;;;;;;;;;27.28;64.56;100365.85;1760917;80;20456;-62
2021/06/30 09:15:31;;;;;;;;;;;;;;;27.25;64.51;100356.80;1766747;79;20181;-62
2021/06/30 09:18:16;;;;;;;;;;;;;;;27.24;64.49;100358.00;1758445;79;21103;-61
2021/06/30 09:20:42;;;;;;;;;;;;;;;27.22;64.46;100360.34;1767042;79;20195;-61
2021/06/30 09:23:08;;;;;;;;;;;;;;;27.19;64.45;100357.73;1732863;82;20285;-62
2021/06/30 09:25:35;;;;;;;;;;;;;;;27.16;64.42;100364.03;1733347;81;20269;-62
2021/06/30 09:28:13;;;;;;;;;;;;;;;27.15;64.42;100351.27;1737362;81;20188;-61
2021/06/30 09:30:56;;;;;;;;;;;;;;;27.13;64.44;100358.39;1733946;81;21138;-62
2021/06/30 09:33:22;;;;;;;;;;;;;;;27.12;64.44;100363.75;1733672;81;20393;-62
2021/06/30 09:35:48;;;;;;;;;;;;;;;27.09;64.44;100361.72;1733588;81;20283;-62
2021/06/30 09:38:29;;;;;;;;;;;;;;;27.08;64.44;100368.47;1732991;81;20194;-61
2021/06/30 09:40:55;;;;;;;;;;;;;;;27.06;64.44;100367.47;1737472;81;20485;-61
2021/06/30 09:43:24;;;;;;;;;;;;;;;27.04;64.44;100374.58;1736205;81;21969;-62
2021/06/30 09:45:50;;;;;;;;;;;;;;;27.04;64.44;100370.39;1719178;82;20132;-62
2021/06/30 09:48:33;;;;;;;;;;;;;;;27.06;64.43;100365.27;1716472;82;20214;-62
2021/06/30 09:51:01;;;;;;;;;;;;;;;27.06;64.43;100373.64;1714849;83;20226;-62
2021/06/30 09:53:35;;;;;;;;;;;;;;;27.07;64.46;100363.50;1706909;82;20631;-62
2021/06/30 09:56:11;;;;;;;;;;;;;;;27.10;64.46;100365.55;1723739;82;21217;-62
2021/06/30 09:58:37;;;;;;;;;;;;;;;27.14;64.47;100358.03;1721399;82;20221;-62
2021/06/30 10:01:18;;;;;;;;;;;;;;;27.17;64.46;100353.67;1721587;82;20178;-62
2021/06/30 10:03:44;;;;;;;;;;;;;;;27.20;64.44;100362.73;1659230;82;20194;-62
2021/06/30 10:06:25;;;;;;;;;;;;;;;27.24;64.41;100349.01;1784910;78;20541;-62
2021/06/30 10:08:51;;;;;;;;;;;;;;;27.30;64.37;100354.28;1798136;79;21166;-62
2021/06/30 10:11:17;;;;;;;;;;;;;;;27.33;64.35;100351.55;1734549;80;20237;-62
2021/06/30 10:13:43;;;;;;;;;;;;;;;27.37;64.30;100347.44;1725768;82;20299;-62
2021/06/30 10:16:08;;;;;;;;;;;;;;;27.39;64.28;100343.08;1701419;82;20733;-62
2021/06/30 10:18:34;;;;;;;;;;;;;;;27.42;64.23;100339.52;1718959;82;20750;-62
2021/06/30 10:21:00;;;;;;;;;;;;;;;27.43;64.17;100329.97;1717714;81;21188;-62
2021/06/30 10:23:29;;;;;;;;;;;;;;;27.44;64.10;100330.19;1713225;82;20606;-62
2021/06/30 10:25:55;;;;;;;;;;;;;;;27.46;64.02;100329.80;1770499;79;20196;-62
2021/06/30 10:28:22;;;;;;;;;;;;;;;27.46;63.96;100325.02;1767837;80;20245;-61
2021/06/30 10:30:50;;;;;;;;;;;;;;;27.45;63.90;100322.62;1765495;80;20196;-61
2021/06/30 10:33:31;;;;;;;;;;;;;;;27.45;63.84;100316.44;1729719;81;21174;-62
2021/06/30 10:35:58;;;;;;;;;;;;;;;27.44;63.80;100317.62;1732892;81;20194;-61
2021/06/30 10:38:26;;;;;;;;;;;;;;;27.43;63.75;100306.22;1741321;81;20203;-61
2021/06/30 10:40:51;;;;;;;;;;;;;;;27.43;63.72;100312.39;1699310;82;20138;-61
2021/06/30 10:43:17;;;;;;;;;;;;;;;27.41;63.70;100311.39;1714994;82;20190;-62
2021/06/30 10:45:43;;;;;;;;;;;;;;;27.40;63.66;100306.98;1711471;82;20994;-61
2021/06/30 10:48:21;;;;;;;;;;;;;;;27.40;63.64;100304.77;1719904;82;20709;-62
2021/06/30 10:50:43;;;;;;;;;;;;;;;27.39;63.62;100296.17;1726199;82;20192;-62
2021/06/30 10:53:15;;;;;;;;;;;;;;;27.37;63.59;100300.72;1714574;82;20453;-62
2021/06/30 10:55:49;;;;;;;;;;;;;;;27.37;63.57;100292.97;1711911;82;20448;-62
2021/06/30 10:58:17;;;;;;;;;;;;;;;27.36;63.58;100292.16;1714339;81;21300;-62
2021/06/30 11:01:04;;;;;;;;;;;;;;;27.35;63.58;100289.72;1708526;82;20186;-61
2021/06/30 11:03:31;;;;;;;;;;;;;;;27.35;63.58;100285.53;1704528;82;20228;-61
2021/06/30 11:06:13;;;;;;;;;;;;;;;27.33;63.57;100273.95;1710439;82;20443;-62
2021/06/30 11:08:50;;;;;;;;;;;;;;;27.32;63.55;100278.72;1718504;82;20210;-63
2021/06/30 11:11:33;;;;;;;;;;;;;;;27.32;63.55;100275.13;1697524;82;21147;-62
2021/06/30 11:14:04;;;;;;;;;;;;;;;27.33;63.53;100278.14;1709161;82;20513;-62
2021/06/30 11:16:54;;;;;;;;;;;;;;;27.35;63.52;100271.56;1719169;82;20190;-61
2021/06/30 11:19:23;;;;;;;;;;;;;;;27.36;63.53;100267.02;1714581;82;20188;-60
2021/06/30 11:21:57;;;;;;;;;;;;;;;27.40;63.57;100264.27;1718583;82;20155;-60
2021/06/30 11:24:40;;;;;;;;;;;;;;;27.44;63.60;100270.71;1713029;82;21630;-62
2021/06/30 11:27:21;;;;;;;;;;;;;;;27.48;63.61;100278.58;1709845;82;20431;-62
2021/06/30 11:29:53;;;;;;;;;;;;;;;27.52;63.60;100269.66;1711655;82;20528;-62
2021/06/30 11:32:35;;;;;;;;;;;;;;;27.58;63.57;100261.17;1730142;81;20184;-62
2021/06/30 11:35:11;;;;;;;;;;;;;;;27.62;63.57;100267.03;1721450;82;20292;-62
2021/06/30 11:37:38;;;;;;;;;;;;;;;27.67;63.53;100267.26;1724942;82;23300;-61
2021/06/30 11:40:10;;;;;;;;;;;;;;;27.69;63.50;100257.92;1721026;81;20183;-62
2021/06/30 11:42:35;;;;;;;;;;;;;;;27.73;63.43;100261.56;1714469;82;20188;-61
2021/06/30 11:45:01;;;;;;;;;;;;;;;27.77;63.39;100258.81;1720640;82;20570;-62
2021/06/30 11:47:27;;;;;;;;;;;;;;;27.79;63.34;100260.66;1711713;82;20592;-62
2021/06/30 11:50:05;;;;;;;;;;;;;;;27.79;63.26;100257.27;1710308;82;21973;-62
2021/06/30 11:52:30;;;;;;;;;;;;;;;27.81;63.20;100256.86;1715001;81;20458;-62
2021/06/30 11:54:59;;;;;;;;;;;;;;;27.80;63.14;100257.45;1719655;82;20823;-61
2021/06/30 11:57:26;;;;;;;;;;;;;;;27.80;63.07;100254.66;1712227;82;20195;-62
2021/06/30 12:00:04;;;;;;;;;;;;;;;27.78;63.07;100256.23;1717530;82;20568;-62
2021/06/30 12:02:46;;;;;;;;;;;;;;;27.79;63.05;100260.06;1767730;79;21090;-62
2021/06/30 12:05:13;;;;;;;;;;;;;;;27.79;63.01;100255.06;1745044;81;20531;-61
2021/06/30 12:07:43;;;;;;;;;;;;;;;27.77;62.99;100248.44;1742267;81;20158;-62
2021/06/30 12:10:10;;;;;;;;;;;;;;;27.76;62.96;100244.02;1737170;81;20157;-62
2021/06/30 12:12:36;;;;;;;;;;;;;;;27.75;62.95;100243.84;1725868;81;20499;-62
2021/06/30 12:15:04;;;;;;;;;;;;;;;27.75;62.94;100245.23;1728826;81;21189;-62
2021/06/30 12:17:30;;;;;;;;;;;;;;;27.74;62.96;100238.03;1723928;81;20660;-62
2021/06/30 12:19:59;;;;;;;;;;;;;;;27.74;62.97;100240.82;1728654;81;20189;-62
2021/06/30 12:22:27;;;;;;;;;;;;;;;27.73;62.96;100237.81;1723529;82;20208;-62
2021/06/30 12:24:59;;;;;;;;;;;;;;;27.73;62.97;100234.20;1718615;81;20192;-63
2021/06/30 12:27:36;;;;;;;;;;;;;;;27.73;62.99;100234.20;1723379;81;21070;-61
2021/06/30 12:30:11;;;;;;;;;;;;;;;27.72;62.99;100225.01;1726618;81;20182;-62
2021/06/30 12:32:43;;;;;;;;;;;;;;;27.72;63.02;100213.83;1734511;81;20487;-62
2021/06/30 12:35:10;;;;;;;;;;;;;;;27.71;63.03;100210.22;1722577;82;20435;-62
2021/06/30 12:37:36;;;;;;;;;;;;;;;27.71;63.03;100208.02;1726055;81;20170;-62
2021/06/30 12:40:06;;;;;;;;;;;;;;;27.73;63.03;100207.06;1726178;81;21126;-62